Time;durP1;ratioP1;P1;durP2;ratioP2;P2;SDS_P1;SDS_P2;PMS_P1;PMS_P2;Temp;Humidity;BMP_temperature;BMP_pressure;BME280_temperature;BME280_humidity;BME280_pressure;Samples;Min_cycle;Max_cycle;Signal;HPM_P1;HPM_P2
2021/12/22 00:02:28;;;;;;;8.03;7.30;;;;;;;22.86;22.05;95762.59;4956644;28;102754;-51
2021/12/22 00:04:54;;;;;;;7.27;6.63;;;;;;;22.86;21.39;95773.25;4941138;28;103045;-51
2021/12/22 00:07:20;;;;;;;7.77;7.07;;;;;;;22.86;21.84;95775.91;4943512;28;102985;-51
2021/12/22 00:09:46;;;;;;;7.50;6.90;;;;;;;22.85;21.56;95772.47;4945887;28;102690;-51
2021/12/22 00:12:11;;;;;;;7.87;7.17;;;;;;;22.85;21.80;95771.66;4958861;28;103047;-52
2021/12/22 00:14:37;;;;;;;7.17;6.57;;;;;;;22.84;21.61;95776.19;4948388;28;103435;-51
2021/12/22 00:17:03;;;;;;;6.80;6.30;;;;;;;22.84;21.51;95768.19;4954599;28;102751;-51
2021/12/22 00:19:29;;;;;;;7.17;6.57;;;;;;;22.85;21.58;95775.13;4944967;28;102840;-51
2021/12/22 00:21:54;;;;;;;6.93;6.37;;;;;;;22.85;21.39;95764.47;4944830;28;102709;-51
2021/12/22 00:24:20;;;;;;;7.00;6.50;;;;;;;22.85;21.73;95763.66;4945851;28;102820;-51
2021/12/22 00:26:46;;;;;;;7.40;6.70;;;;;;;22.84;21.41;95768.19;4942019;28;103296;-51
2021/12/22 00:29:13;;;;;;;7.13;6.43;;;;;;;22.85;21.32;95779.66;4942866;28;103135;-51
2021/12/22 00:31:43;;;;;;;7.07;6.37;;;;;;;22.85;21.47;95775.13;4960400;28;102855;-51
2021/12/22 00:34:16;;;;;;;6.90;6.30;;;;;;;22.84;21.61;95767.38;4951965;28;102937;-51
2021/12/22 00:36:42;;;;;;;6.83;6.33;;;;;;;22.85;21.17;95774.34;4956300;28;103248;-51
2021/12/22 00:39:08;;;;;;;6.70;6.10;;;;;;;22.84;21.54;95776.19;4941252;28;102884;-51
2021/12/22 00:41:34;;;;;;;6.10;5.60;;;;;;;22.85;21.50;95785.00;4945602;28;102942;-51
2021/12/22 00:43:59;;;;;;;6.17;5.67;;;;;;;22.84;20.97;95784.16;4943342;28;102865;-51
2021/12/22 00:46:25;;;;;;;6.67;6.17;;;;;;;22.84;21.39;95791.38;4943874;28;103260;-51
2021/12/22 00:48:52;;;;;;;6.50;5.90;;;;;;;22.83;21.25;95792.44;4957184;28;102757;-51
2021/12/22 00:51:18;;;;;;;6.47;5.97;;;;;;;22.83;21.28;95787.13;4944346;28;103851;-51
2021/12/22 00:53:43;;;;;;;5.93;5.47;;;;;;;22.81;21.45;95785.50;4951292;28;103350;-51
2021/12/22 00:56:09;;;;;;;5.43;5.03;;;;;;;22.81;21.16;95796.16;4958261;28;102849;-51
2021/12/22 00:58:35;;;;;;;5.77;5.30;;;;;;;22.81;21.08;95800.69;4950670;28;102881;-51
2021/12/22 01:01:01;;;;;;;5.60;5.10;;;;;;;22.81;21.23;95800.69;4956235;28;102752;-51
2021/12/22 01:03:27;;;;;;;5.60;5.20;;;;;;;22.80;20.99;95793.78;4951226;28;102848;-51
2021/12/22 01:05:53;;;;;;;6.20;5.70;;;;;;;22.79;21.47;95789.53;4945855;28;102790;-51
2021/12/22 01:08:18;;;;;;;5.17;4.73;;;;;;;22.78;21.06;95791.41;4950097;28;103367;-51
2021/12/22 01:10:44;;;;;;;5.80;5.20;;;;;;;22.78;21.06;95787.94;4956654;28;102837;-51
2021/12/22 01:13:12;;;;;;;5.73;5.33;;;;;;;22.77;21.26;95778.38;4950570;28;102897;-51
2021/12/22 01:15:38;;;;;;;5.20;4.80;;;;;;;22.76;21.65;95777.59;4959667;28;103091;-51
2021/12/22 01:18:15;;;;;;;5.40;5.00;;;;;;;22.76;21.30;95787.44;4953121;28;103786;-51
2021/12/22 01:26:39;;;;;;;4.77;4.43;;;;;;;22.76;20.82;95776.78;4947369;28;103477;-51
2021/12/22 01:29:04;;;;;;;5.17;4.77;;;;;;;22.76;21.05;95766.13;4946273;28;103184;-52
2021/12/22 01:31:30;;;;;;;4.77;4.40;;;;;;;22.76;21.17;95761.59;4951091;28;102805;-51
2021/12/22 01:33:56;;;;;;;4.70;4.30;;;;;;;22.76;20.90;95763.47;4960857;28;103459;-51
2021/12/22 01:36:21;;;;;;;5.27;4.87;;;;;;;22.76;20.97;95755.47;4959508;28;103405;-51
2021/12/22 01:38:48;;;;;;;5.00;4.60;;;;;;;22.76;20.99;95755.47;4957822;28;103225;-52
2021/12/22 01:41:14;;;;;;;4.33;4.03;;;;;;;22.76;20.98;95758.16;4959112;28;103410;-52
2021/12/22 01:43:39;;;;;;;5.07;4.67;;;;;;;22.76;20.65;95750.94;4957784;28;103862;-51
2021/12/22 01:46:32;;;;;;;4.67;4.27;;;;;;;22.75;20.75;95757.34;4958817;28;102900;-51
2021/12/22 01:49:11;;;;;;;5.07;4.67;;;;;;;22.76;20.71;95758.16;4950854;28;103177;-51
2021/12/22 01:51:55;;;;;;;5.00;4.60;;;;;;;22.77;21.16;95763.19;4955848;28;102824;-51
2021/12/22 01:54:23;;;;;;;4.43;4.13;;;;;;;22.75;20.89;95754.69;4958588;28;103245;-51
2021/12/22 01:56:51;;;;;;;4.50;4.10;;;;;;;22.75;20.73;95749.34;4960909;28;102233;-51
2021/12/22 01:59:20;;;;;;;4.17;3.80;;;;;;;22.74;21.09;95750.44;4959211;28;102959;-51
2021/12/22 02:01:46;;;;;;;4.73;4.30;;;;;;;22.75;20.75;95753.91;4951666;28;103002;-51
2021/12/22 02:04:13;;;;;;;4.70;4.30;;;;;;;22.74;20.83;95749.66;4942742;28;103246;-51
2021/12/22 02:06:43;;;;;;;4.30;3.90;;;;;;;22.74;20.65;95750.44;4942183;28;102755;-51
2021/12/22 02:09:11;;;;;;;4.17;3.77;;;;;;;22.74;20.99;95741.66;4941343;28;102900;-51
2021/12/22 02:11:37;;;;;;;3.73;3.43;;;;;;;22.74;20.99;95742.44;4951004;28;102999;-51
2021/12/22 02:14:05;;;;;;;4.07;3.80;;;;;;;22.73;20.61;95748.06;4941198;28;103029;-51
2021/12/22 02:16:35;;;;;;;4.00;3.70;;;;;;;22.73;20.67;95748.84;4956867;28;102578;-51
2021/12/22 02:19:04;;;;;;;4.00;3.70;;;;;;;22.74;20.69;95746.97;4952813;28;102726;-51
2021/12/22 02:21:33;;;;;;;3.80;3.50;;;;;;;22.72;20.85;95741.94;4949354;28;103253;-51
2021/12/22 02:24:00;;;;;;;4.10;3.80;;;;;;;22.70;20.90;95736.13;4960523;28;103134;-51
2021/12/22 02:26:35;;;;;;;4.00;3.70;;;;;;;22.72;20.73;95743.81;4957904;28;103030;-51
2021/12/22 02:29:05;;;;;;;4.30;4.00;;;;;;;22.72;20.55;95733.16;4947135;28;103237;-51
2021/12/22 02:31:38;;;;;;;3.93;3.63;;;;;;;22.71;20.93;95732.38;4945346;28;103801;-51
2021/12/22 02:34:05;;;;;;;4.23;3.87;;;;;;;22.71;20.42;95737.69;4953150;28;104496;-50
2021/12/22 02:36:37;;;;;;;3.87;3.57;;;;;;;22.70;20.86;95735.31;4956726;28;102896;-51
2021/12/22 02:39:04;;;;;;;4.00;3.70;;;;;;;22.71;21.06;95739.56;4957728;28;102760;-51
2021/12/22 02:41:31;;;;;;;4.27;3.97;;;;;;;22.70;20.88;95732.66;4952710;28;102681;-51
2021/12/22 02:43:58;;;;;;;4.33;4.03;;;;;;;22.70;20.66;95724.66;4941566;28;102916;-51
2021/12/22 02:46:28;;;;;;;3.97;3.67;;;;;;;22.68;20.40;95724.97;4941635;28;103537;-51
2021/12/22 02:48:55;;;;;;;4.23;3.90;;;;;;;22.69;20.68;95728.41;4959622;28;102855;-51
2021/12/22 02:51:21;;;;;;;3.30;3.10;;;;;;;22.70;20.73;95730.00;4958354;28;103126;-50
2021/12/22 02:54:02;;;;;;;3.77;3.47;;;;;;;22.68;20.65;95732.94;4949599;28;103505;-50
2021/12/22 02:56:37;;;;;;;3.67;3.43;;;;;;;22.68;20.75;95729.50;4959043;28;103235;-51
2021/12/22 03:04:42;;;;;;;3.60;3.40;;;;;;;22.69;20.60;95736.41;4954975;28;102791;-50
2021/12/22 03:07:13;;;;;;;3.40;3.20;;;;;;;22.68;20.57;95734.81;4957375;28;103319;-50
2021/12/22 03:09:39;;;;;;;3.43;3.13;;;;;;;22.68;20.11;95732.16;4958806;28;103217;-51
2021/12/22 03:12:09;;;;;;;3.70;3.40;;;;;;;22.67;20.77;95727.88;4948298;28;102781;-51
2021/12/22 03:14:35;;;;;;;4.20;3.90;;;;;;;22.67;20.61;95728.66;4956492;28;103083;-51
2021/12/22 03:17:00;;;;;;;3.30;3.10;;;;;;;22.67;20.66;95728.66;4958987;28;103933;-51
2021/12/22 03:19:29;;;;;;;3.50;3.30;;;;;;;22.67;20.55;95727.88;4942457;28;102940;-51
2021/12/22 03:22:02;;;;;;;3.57;3.27;;;;;;;22.67;20.45;95727.88;4948817;28;102828;-51
2021/12/22 03:24:30;;;;;;;3.60;3.30;;;;;;;22.66;20.59;95729.75;4944640;28;103549;-51
2021/12/22 03:26:59;;;;;;;3.57;3.33;;;;;;;22.66;20.45;95732.41;4941500;28;103523;-50
2021/12/22 03:29:25;;;;;;;3.63;3.33;;;;;;;22.66;20.23;95729.75;4940161;28;102729;-50
2021/12/22 03:31:50;;;;;;;3.37;3.10;;;;;;;22.68;20.14;95732.94;4952466;28;103347;-50
2021/12/22 03:34:16;;;;;;;3.20;3.00;;;;;;;22.68;20.29;95738.28;4953940;28;103275;-51
2021/12/22 03:36:43;;;;;;;4.00;3.70;;;;;;;22.69;20.35;95742.53;4939343;28;102817;-50
2021/12/22 03:39:10;;;;;;;3.50;3.20;;;;;;;22.69;20.33;95739.84;4953778;28;102911;-51
2021/12/22 03:41:35;;;;;;;3.30;3.10;;;;;;;22.69;20.23;95734.53;4956046;28;102894;-50
2021/12/22 03:44:04;;;;;;;4.40;4.00;;;;;;;22.71;20.40;95728.91;4954434;28;103884;-51
2021/12/22 03:46:30;;;;;;;4.03;3.73;;;;;;;22.70;20.15;95730.78;4949728;28;102782;-51
2021/12/22 03:48:55;;;;;;;3.90;3.60;;;;;;;22.69;20.08;95729.19;4956081;28;102706;-53
2021/12/22 03:51:21;;;;;;;3.73;3.43;;;;;;;22.70;20.32;95728.13;4954619;28;102891;-51
2021/12/22 03:53:46;;;;;;;4.30;4.00;;;;;;;22.70;20.30;95736.13;4956341;28;102743;-51
2021/12/22 03:56:12;;;;;;;4.40;4.10;;;;;;;22.70;20.23;95736.13;4953581;28;102775;-51
2021/12/22 03:58:37;;;;;;;4.10;3.80;;;;;;;22.71;20.24;95739.56;4957382;28;103185;-51
2021/12/22 04:01:04;;;;;;;4.20;3.90;;;;;;;22.72;20.31;95741.16;4942525;28;102743;-51
2021/12/22 04:03:33;;;;;;;4.17;3.87;;;;;;;22.74;20.17;95744.31;4958462;28;103788;-51
2021/12/22 04:05:59;;;;;;;3.93;3.63;;;;;;;22.74;20.22;95747.78;4950387;28;102719;-51
2021/12/22 04:08:24;;;;;;;4.20;3.90;;;;;;;22.75;20.45;95748.56;4946924;28;102776;-51
2021/12/22 04:10:51;;;;;;;3.43;3.23;;;;;;;22.77;20.28;95754.41;4958663;28;102674;-51
2021/12/22 04:13:18;;;;;;;3.77;3.47;;;;;;;22.76;20.17;95748.28;4952338;28;102770;-51
2021/12/22 04:15:44;;;;;;;3.90;3.60;;;;;;;22.77;20.26;95746.41;4941057;28;104052;-51
2021/12/22 04:18:11;;;;;;;3.83;3.53;;;;;;;22.78;20.34;95753.31;4949573;28;102829;-55
2021/12/22 04:20:37;;;;;;;3.40;3.20;;;;;;;22.72;20.35;95751.81;4945533;28;103214;-52
2021/12/22 04:23:04;;;;;;;4.40;4.10;;;;;;;22.73;20.43;95756.06;4949282;28;103279;-52
2021/12/22 04:25:30;;;;;;;3.73;3.33;;;;;;;22.77;20.44;95765.84;4950691;28;102764;-53
2021/12/22 04:28:05;;;;;;;4.20;3.90;;;;;;;22.83;20.64;95761.28;4944954;28;103054;-52
2021/12/22 04:30:33;;;;;;;3.93;3.63;;;;;;;22.87;21.21;95770.28;4945745;28;102867;-52
2021/12/22 04:33:00;;;;;;;3.60;3.30;;;;;;;22.90;21.34;95761.72;4948075;28;102812;-54
2021/12/22 04:35:26;;;;;;;4.23;3.93;;;;;;;22.89;21.35;95760.16;4938681;28;103356;-52
2021/12/22 04:37:52;;;;;;;4.30;4.00;;;;;;;22.94;21.52;95761.94;4938198;28;102656;-52
2021/12/22 04:40:17;;;;;;;5.00;4.57;;;;;;;22.99;22.07;95762.66;4938697;28;102792;-52
2021/12/22 04:42:44;;;;;;;5.23;4.77;;;;;;;23.00;22.21;95750.91;4938757;28;102682;-52
2021/12/22 04:45:11;;;;;;;4.77;4.47;;;;;;;23.03;22.34;95755.69;4939140;28;102691;-52
2021/12/22 04:47:37;;;;;;;6.17;5.67;;;;;;;23.05;22.54;95758.88;4948753;28;102754;-52
2021/12/22 04:50:14;;;;;;;5.70;5.20;;;;;;;23.02;22.33;95761.31;4944520;28;102717;-52
2021/12/22 04:53:04;;;;;;;6.13;5.43;;;;;;;23.03;23.09;95761.03;4943346;28;102783;-52
2021/12/22 04:55:30;;;;;;;6.33;5.73;;;;;;;23.05;23.25;95758.06;4947930;28;103425;-51
2021/12/22 04:57:56;;;;;;;7.40;6.70;;;;;;;23.08;23.45;95760.16;4937953;28;103120;-51
2021/12/22 05:00:26;;;;;;;7.60;6.90;;;;;;;23.11;23.42;95767.56;4947971;28;102744;-51
2021/12/22 05:02:53;;;;;;;7.70;6.90;;;;;;;23.11;23.34;95762.25;4947260;28;103033;-51
2021/12/22 05:05:18;;;;;;;7.83;7.13;;;;;;;23.13;23.61;95765.41;4947901;28;102591;-51
2021/12/22 05:07:47;;;;;;;8.17;7.37;;;;;;;23.14;23.31;95760.88;4957148;28;102725;-51
2021/12/22 05:10:14;;;;;;;8.70;7.13;;;;;;;23.16;23.53;95770.16;4952241;28;103189;-52
2021/12/22 05:12:40;;;;;;;7.10;6.50;;;;;;;23.18;24.20;95768.03;4952582;28;102768;-52
2021/12/22 05:15:06;;;;;;;7.10;6.60;;;;;;;23.18;24.57;95767.19;4950638;28;102714;-51
2021/12/22 05:18:00;;;;;;;6.90;6.30;;;;;;;23.16;24.16;95774.69;4950584;28;102863;-52
2021/12/22 05:20:23;;;;;;;7.80;6.83;;;;;;;23.08;23.78;95776.94;4951874;28;103210;-53
2021/12/22 05:22:50;;;;;;;7.40;6.70;;;;;;;23.10;24.10;95781.97;4942217;28;103147;-50
2021/12/22 05:25:16;;;;;;;7.70;7.10;;;;;;;23.01;24.11;95789.84;4940513;28;102825;-50
2021/12/22 05:27:42;;;;;;;8.43;6.87;;;;;;;22.95;23.70;95790.97;4941122;28;102846;-50
2021/12/22 05:30:09;;;;;;;7.43;6.63;;;;;;;22.87;23.86;95791.63;4941398;28;102979;-51
2021/12/22 05:32:36;;;;;;;7.90;7.20;;;;;;;22.84;23.50;95791.38;4941615;28;102727;-50
2021/12/22 05:35:05;;;;;;;6.67;6.17;;;;;;;22.81;23.48;95795.38;4940468;28;103530;-47
2021/12/22 05:37:31;;;;;;;7.50;6.80;;;;;;;22.79;23.52;95794.88;4941611;28;102766;-47
2021/12/22 05:39:56;;;;;;;6.93;6.43;;;;;;;22.77;23.23;95792.50;4942431;28;103093;-47
2021/12/22 05:42:26;;;;;;;6.83;6.23;;;;;;;22.75;23.19;95796.53;4941113;28;103751;-47
2021/12/22 05:44:52;;;;;;;7.00;6.43;;;;;;;22.73;23.03;95798.69;4941372;28;103424;-47
2021/12/22 05:47:18;;;;;;;7.40;6.80;;;;;;;22.73;22.82;95791.47;4939951;28;102732;-48
2021/12/22 05:49:44;;;;;;;7.17;6.47;;;;;;;22.73;22.63;95802.13;4940866;28;102831;-48
2021/12/22 05:52:10;;;;;;;7.33;6.37;;;;;;;22.73;22.70;95804.00;4941088;28;103169;-48
2021/12/22 05:54:36;;;;;;;7.10;6.50;;;;;;;22.71;22.31;95795.50;4941268;28;103463;-47
2021/12/22 05:57:02;;;;;;;7.10;6.50;;;;;;;22.71;22.35;95803.50;4940340;28;102840;-47
2021/12/22 05:59:28;;;;;;;7.60;7.00;;;;;;;22.70;22.39;95800.03;4940978;28;102631;-48
2021/12/22 06:01:53;;;;;;;7.63;6.93;;;;;;;22.69;22.21;95803.00;4942470;28;103772;-47
2021/12/22 06:04:19;;;;;;;7.10;6.50;;;;;;;22.68;22.27;95802.19;4941815;28;102645;-46
2021/12/22 06:06:44;;;;;;;7.37;6.77;;;;;;;22.67;22.25;95803.25;4941044;28;102745;-46
2021/12/22 06:09:10;;;;;;;8.20;7.50;;;;;;;22.67;21.78;95799.78;4940552;28;102643;-46
2021/12/22 06:11:35;;;;;;;8.47;7.80;;;;;;;22.68;22.19;95804.06;4939516;28;103368;-46
2021/12/22 06:14:01;;;;;;;8.70;8.00;;;;;;;22.68;21.68;95806.75;4940838;28;103099;-48
2021/12/22 06:16:29;;;;;;;8.40;7.70;;;;;;;22.67;21.65;95805.91;4941068;28;102743;-47
2021/12/22 06:19:02;;;;;;;7.80;7.17;;;;;;;22.68;21.78;95812.06;4940705;28;103039;-47
2021/12/22 06:21:30;;;;;;;8.70;8.00;;;;;;;22.68;21.88;95818.19;4938910;28;102725;-47
2021/12/22 06:23:55;;;;;;;8.87;8.17;;;;;;;22.68;21.53;95826.19;4940207;28;102873;-47
2021/12/22 06:26:21;;;;;;;9.80;8.90;;;;;;;22.69;21.64;95825.09;4940866;28;103182;-47
2021/12/22 06:28:46;;;;;;;9.00;8.20;;;;;;;22.69;21.59;95821.63;4940954;28;102799;-47
2021/12/22 06:31:12;;;;;;;9.63;8.80;;;;;;;22.70;21.70;95823.22;4939624;28;102789;-47
2021/12/22 06:33:39;;;;;;;9.20;8.37;;;;;;;22.69;21.45;95819.78;4940674;28;103303;-47
2021/12/22 06:36:04;;;;;;;9.07;8.33;;;;;;;22.70;21.26;95828.56;4939860;28;102749;-47
2021/12/22 06:38:30;;;;;;;9.23;8.47;;;;;;;22.70;21.09;95828.56;4941016;28;102702;-47
2021/12/22 06:40:56;;;;;;;9.20;8.40;;;;;;;22.71;21.03;95830.13;4940529;28;103325;-47
2021/12/22 06:43:21;;;;;;;8.90;8.20;;;;;;;22.71;21.24;95824.81;4939905;28;103332;-47
2021/12/22 06:45:47;;;;;;;9.17;8.37;;;;;;;22.71;21.20;95830.13;4940574;28;102891;-47
2021/12/22 06:48:13;;;;;;;8.93;8.13;;;;;;;22.72;21.25;95829.84;4941340;28;102654;-47
2021/12/22 06:50:38;;;;;;;8.70;7.90;;;;;;;22.75;21.03;95836.47;4939829;28;102809;-47
2021/12/22 06:53:04;;;;;;;8.97;8.07;;;;;;;22.74;21.20;95832.22;4939630;28;102965;-47
2021/12/22 06:55:29;;;;;;;8.93;8.13;;;;;;;22.76;20.80;95828.19;4940001;28;102880;-47
2021/12/22 06:57:55;;;;;;;8.30;7.63;;;;;;;22.79;20.89;95837.50;4940272;28;103102;-47
2021/12/22 07:00:21;;;;;;;8.57;7.70;;;;;;;22.95;20.96;95833.59;4939724;28;102581;-47
2021/12/22 07:02:47;;;;;;;9.00;8.10;;;;;;;23.55;20.00;95841.88;4939850;28;103336;-47
2021/12/22 07:05:12;;;;;;;9.17;8.37;;;;;;;23.93;19.67;95840.00;4939910;28;102698;-47
2021/12/22 07:07:39;;;;;;;7.70;6.90;;;;;;;24.10;19.46;95836.78;4940946;28;103277;-47
2021/12/22 07:10:07;;;;;;;8.10;7.50;;;;;;;24.27;19.37;95836.25;4940209;28;103237;-47
2021/12/22 07:12:35;;;;;;;7.90;6.90;;;;;;;24.43;19.28;95839.47;4939376;28;104639;-47
2021/12/22 07:15:03;;;;;;;7.90;7.20;;;;;;;24.54;19.06;95835.53;4939150;28;103090;-47
2021/12/22 07:17:29;;;;;;;8.70;7.90;;;;;;;24.44;19.66;95841.06;4940473;28;102705;-47
2021/12/22 07:19:54;;;;;;;8.90;8.10;;;;;;;24.55;19.05;95837.13;4939263;28;102753;-47
2021/12/22 07:22:20;;;;;;;8.23;7.23;;;;;;;24.36;19.00;95841.75;4939238;28;102645;-47
2021/12/22 07:24:45;;;;;;;8.37;7.67;;;;;;;24.23;19.63;95836.03;4938770;28;102683;-47
2021/12/22 07:27:11;;;;;;;8.70;7.90;;;;;;;24.17;19.31;95842.53;4938029;28;103058;-48
2021/12/22 07:29:37;;;;;;;8.83;8.10;;;;;;;24.14;19.35;95837.78;4940445;28;102760;-48
2021/12/22 07:32:04;;;;;;;8.13;7.40;;;;;;;24.14;19.41;95835.13;4940134;28;102711;-48
2021/12/22 07:34:50;;;;;;;8.60;7.70;;;;;;;24.13;19.43;95841.53;4939527;28;102910;-48
2021/12/22 07:37:22;;;;;;;8.50;7.60;;;;;;;24.16;19.75;95837.50;4939582;28;102914;-48
2021/12/22 07:39:48;;;;;;;8.20;7.37;;;;;;;24.10;19.34;95838.69;4939626;28;102787;-47
2021/12/22 07:42:13;;;;;;;8.57;7.77;;;;;;;24.05;19.69;95836.88;4939568;28;102831;-47
2021/12/22 07:44:39;;;;;;;8.30;7.60;;;;;;;24.08;20.03;95833.63;4954279;28;102771;-48
2021/12/22 07:47:05;;;;;;;8.13;7.33;;;;;;;24.10;19.69;95839.47;4939606;28;102945;-48
2021/12/22 07:49:30;;;;;;;7.77;7.17;;;;;;;24.08;20.00;95838.97;4938465;28;104539;-48
2021/12/22 07:51:56;;;;;;;7.90;7.30;;;;;;;24.03;19.50;95840.94;4939660;28;103574;-48
2021/12/22 07:54:21;;;;;;;7.80;7.17;;;;;;;23.98;19.82;95834.56;4939298;28;104539;-48
2021/12/22 07:56:47;;;;;;;8.23;7.53;;;;;;;23.86;19.78;95828.13;4939635;28;102605;-48
2021/12/22 07:59:12;;;;;;;7.67;7.07;;;;;;;23.76;19.86;95830.94;4938683;28;102859;-48
2021/12/22 08:01:38;;;;;;;8.17;7.47;;;;;;;23.68;20.01;95832.38;4939418;28;102655;-48
2021/12/22 08:04:03;;;;;;;6.93;6.33;;;;;;;23.61;20.02;95835.41;4939384;28;103077;-48
2021/12/22 08:06:29;;;;;;;7.27;6.67;;;;;;;23.56;20.10;95837.34;4940387;28;103036;-48
2021/12/22 08:08:55;;;;;;;7.50;6.80;;;;;;;23.49;20.38;95840.34;4938773;28;103261;-48
2021/12/22 08:11:20;;;;;;;7.70;7.10;;;;;;;23.45;20.43;95836.69;4938821;28;102914;-48
2021/12/22 08:13:46;;;;;;;7.77;7.07;;;;;;;23.41;20.00;95828.47;4938769;28;102701;-47
2021/12/22 08:16:11;;;;;;;7.10;6.60;;;;;;;23.39;20.60;95835.19;4939782;28;103976;-47
2021/12/22 08:18:37;;;;;;;7.43;6.73;;;;;;;23.37;20.24;95835.47;4939123;28;103506;-48
2021/12/22 08:21:02;;;;;;;8.27;7.00;;;;;;;23.35;20.23;95837.63;4938567;28;102844;-48
2021/12/22 08:23:28;;;;;;;7.23;6.63;;;;;;;23.34;20.11;95837.91;4939459;28;102697;-48
2021/12/22 08:25:55;;;;;;;7.47;6.87;;;;;;;23.36;20.41;95849.09;4939047;28;102802;-48
2021/12/22 08:28:21;;;;;;;7.60;7.00;;;;;;;23.39;20.28;95853.84;4938094;28;103618;-48
2021/12/22 08:30:47;;;;;;;7.23;6.63;;;;;;;23.44;20.51;95842.31;4939452;28;102838;-48
2021/12/22 08:33:21;;;;;;;7.57;6.97;;;;;;;23.51;20.30;95845.41;4938844;28;103115;-48
2021/12/22 08:38:56;;;;;;;7.70;7.03;;;;;;;23.59;20.01;95845.59;4941668;28;102795;-48
2021/12/22 08:41:24;;;;;;;7.67;7.07;;;;;;;23.62;20.17;95850.34;4942087;28;103376;-48
2021/12/22 08:43:52;;;;;;;6.40;5.90;;;;;;;23.65;20.37;95851.63;4940968;28;102916;-47
2021/12/22 08:46:17;;;;;;;7.50;6.90;;;;;;;23.67;19.85;95854.81;4942215;28;102974;-47
2021/12/22 08:48:43;;;;;;;6.90;6.40;;;;;;;23.63;20.53;95851.94;4941931;28;103250;-48
2021/12/22 08:51:09;;;;;;;7.53;6.93;;;;;;;23.63;20.24;95857.25;4941948;28;102734;-48
2021/12/22 08:53:35;;;;;;;6.27;5.87;;;;;;;23.62;20.55;95858.34;4941500;28;102833;-48
2021/12/22 08:56:01;;;;;;;6.63;6.13;;;;;;;23.61;20.34;95856.75;4942361;28;102776;-48
2021/12/22 08:58:26;;;;;;;7.07;6.47;;;;;;;23.64;20.07;95856.19;4942260;28;103153;-48
2021/12/22 09:00:52;;;;;;;7.03;6.37;;;;;;;23.65;20.53;95857.75;4942163;28;103528;-48
2021/12/22 09:03:18;;;;;;;6.83;6.33;;;;;;;23.66;20.44;95853.22;4940964;28;102782;-48
2021/12/22 09:05:43;;;;;;;6.73;6.13;;;;;;;23.64;20.22;95844.72;4941685;28;102705;-48
2021/12/22 09:08:09;;;;;;;7.00;6.37;;;;;;;23.63;20.17;95848.47;4941837;28;103226;-48
2021/12/22 09:10:34;;;;;;;6.40;5.90;;;;;;;23.60;20.70;95849.84;4941515;28;102864;-48
2021/12/22 09:13:00;;;;;;;6.17;5.67;;;;;;;23.57;20.51;95854.97;4941876;28;102713;-48
2021/12/22 09:15:25;;;;;;;7.10;6.50;;;;;;;23.56;20.53;95853.34;4941472;28;103200;-48
2021/12/22 09:17:51;;;;;;;6.97;6.37;;;;;;;23.52;20.50;95850.47;4941479;28;103167;-48
2021/12/22 09:20:17;;;;;;;7.00;6.40;;;;;;;23.50;20.32;95847.28;4941804;28;103877;-48
2021/12/22 09:22:42;;;;;;;6.97;6.37;;;;;;;23.50;20.24;95852.59;4942012;28;102603;-48
2021/12/22 09:25:09;;;;;;;6.57;6.07;;;;;;;23.48;20.39;95845.97;4941437;28;102719;-48
2021/12/22 09:27:34;;;;;;;7.23;6.53;;;;;;;23.48;20.58;95848.66;4940271;28;103481;-48
2021/12/22 09:30:00;;;;;;;7.13;6.53;;;;;;;23.47;20.47;95844.41;4941425;28;103662;-48
2021/12/22 09:32:25;;;;;;;7.33;6.73;;;;;;;23.49;20.54;95839.56;4941269;28;102843;-48
2021/12/22 09:34:51;;;;;;;6.80;6.20;;;;;;;23.53;20.66;95841.38;4942164;28;102633;-48
2021/12/22 09:37:17;;;;;;;6.97;6.40;;;;;;;23.57;20.60;95838.97;4940922;28;102869;-48
2021/12/22 09:39:43;;;;;;;6.30;5.80;;;;;;;23.60;20.59;95839.16;4940869;28;103259;-48
2021/12/22 09:42:10;;;;;;;6.80;6.20;;;;;;;23.62;20.31;95836.22;4941366;28;102725;-48
2021/12/22 09:44:43;;;;;;;8.10;6.10;;;;;;;23.64;20.72;95828.72;4941472;28;102771;-48
2021/12/22 09:47:10;;;;;;;6.23;5.73;;;;;;;23.68;20.71;95824.38;4940016;28;102986;-48
2021/12/22 09:49:48;;;;;;;7.30;6.57;;;;;;;23.72;20.52;95829.94;4940057;28;103283;-48
2021/12/22 09:52:20;;;;;;;7.20;6.70;;;;;;;23.75;20.45;95826.69;4940515;28;104030;-48
2021/12/22 09:54:48;;;;;;;7.07;6.30;;;;;;;23.77;20.15;95821.84;4940854;28;102903;-48
2021/12/22 09:57:17;;;;;;;7.20;6.70;;;;;;;23.81;20.63;95825.50;4940984;28;103192;-48
2021/12/22 09:59:43;;;;;;;6.57;6.10;;;;;;;23.77;20.36;95811.97;4939988;28;102905;-48
2021/12/22 10:02:10;;;;;;;7.03;6.43;;;;;;;23.74;20.65;95817.88;4940889;28;103681;-48
2021/12/22 10:04:35;;;;;;;6.90;6.40;;;;;;;23.73;20.21;95813.63;4941869;28;102010;-48
2021/12/22 10:07:01;;;;;;;7.47;6.77;;;;;;;23.74;20.35;95815.22;4940815;28;103538;-48
2021/12/22 10:09:27;;;;;;;9.03;6.97;;;;;;;23.72;20.77;95814.72;4940704;28;102680;-48
2021/12/22 10:11:52;;;;;;;7.10;6.37;;;;;;;23.70;20.78;95815.03;4940461;28;103002;-48
2021/12/22 10:14:21;;;;;;;6.53;6.03;;;;;;;23.72;20.85;95811.25;4940864;28;102839;-48
2021/12/22 10:16:51;;;;;;;7.07;6.47;;;;;;;23.73;20.81;95804.84;4939710;28;103566;-48
2021/12/22 10:19:17;;;;;;;6.93;6.23;;;;;;;23.72;20.63;95813.94;4940765;28;102816;-48
2021/12/22 10:22:00;;;;;;;7.50;6.80;;;;;;;23.71;20.57;95807.81;4940114;28;102830;-48
2021/12/22 10:24:41;;;;;;;7.57;6.97;;;;;;;23.72;20.82;95800.59;4940560;28;102764;-48
2021/12/22 10:27:11;;;;;;;7.70;7.10;;;;;;;23.68;20.46;95801.19;4940822;28;103346;-48
2021/12/22 10:29:37;;;;;;;7.30;6.70;;;;;;;23.65;20.70;95801.75;4940456;28;103426;-48
2021/12/22 10:32:09;;;;;;;6.93;6.33;;;;;;;23.64;20.86;95802.81;4940174;28;102833;-48
2021/12/22 10:34:34;;;;;;;7.20;6.50;;;;;;;23.63;20.72;95806.56;4941314;28;103334;-48
2021/12/22 10:37:00;;;;;;;7.47;6.87;;;;;;;23.61;20.47;95799.94;4940843;28;102876;-48
2021/12/22 10:39:31;;;;;;;8.00;7.30;;;;;;;23.60;20.46;95790.34;4940037;28;102901;-48
2021/12/22 10:42:08;;;;;;;7.40;6.80;;;;;;;23.59;20.70;95786.91;4940018;28;102758;-48
2021/12/22 10:44:40;;;;;;;7.17;6.63;;;;;;;23.59;20.87;95788.78;4940309;28;103230;-48
2021/12/22 10:47:19;;;;;;;7.93;7.23;;;;;;;23.56;20.82;95795.47;4939923;28;103217;-48
2021/12/22 10:50:17;;;;;;;8.00;7.30;;;;;;;23.53;20.99;95796.03;4940260;28;103413;-48
2021/12/22 10:52:50;;;;;;;7.83;7.23;;;;;;;23.51;20.87;95792.84;4938197;28;102822;-48
2021/12/22 10:55:15;;;;;;;7.30;6.70;;;;;;;23.49;20.83;95789.69;4939579;28;102912;-48
2021/12/22 10:57:44;;;;;;;6.67;6.17;;;;;;;23.48;20.80;95785.44;4940487;28;104071;-48
2021/12/22 11:00:16;;;;;;;7.40;6.80;;;;;;;23.46;20.66;95784.94;4940570;28;102853;-48
2021/12/22 11:02:49;;;;;;;7.50;6.80;;;;;;;23.44;20.57;95775.63;4940043;28;102762;-48
2021/12/22 11:05:28;;;;;;;7.33;6.73;;;;;;;23.42;21.13;95774.06;4939449;28;103540;-48
2021/12/22 11:07:54;;;;;;;7.40;6.80;;;;;;;23.41;20.91;95769.81;4939434;28;102826;-48
2021/12/22 11:10:25;;;;;;;7.30;6.60;;;;;;;23.40;20.57;95764.75;4939570;28;102776;-48
2021/12/22 11:13:03;;;;;;;7.87;6.87;;;;;;;23.36;21.15;95759.22;4939354;28;102926;-48
2021/12/22 11:15:29;;;;;;;7.77;7.00;;;;;;;23.37;20.78;95765.34;4939701;28;102760;-48
2021/12/22 11:17:55;;;;;;;7.93;7.20;;;;;;;23.36;20.96;95767.22;4938813;28;102849;-48
2021/12/22 11:20:25;;;;;;;7.50;6.90;;;;;;;23.36;20.52;95755.75;4939603;28;102858;-48
2021/12/22 11:23:04;;;;;;;7.67;6.97;;;;;;;23.35;20.97;95767.50;4939475;28;102817;-48
2021/12/22 11:25:30;;;;;;;8.00;7.33;;;;;;;23.33;20.61;95761.66;4940819;28;104229;-48
2021/12/22 11:27:57;;;;;;;7.83;7.10;;;;;;;23.32;20.82;95760.06;4938896;28;102761;-48
2021/12/22 11:30:26;;;;;;;7.90;7.30;;;;;;;23.33;20.91;95761.66;4939385;28;102795;-48
2021/12/22 11:32:54;;;;;;;8.33;7.50;;;;;;;23.30;20.82;95752.34;4939127;28;103525;-48
2021/12/22 11:35:21;;;;;;;7.70;7.00;;;;;;;23.31;21.14;95745.16;4940110;28;102772;-48
2021/12/22 11:37:46;;;;;;;8.03;7.33;;;;;;;23.31;21.13;95745.16;4939427;28;102630;-48
2021/12/22 11:40:14;;;;;;;7.87;7.17;;;;;;;23.29;20.55;95752.66;4938874;28;102917;-48
2021/12/22 11:42:40;;;;;;;6.93;6.37;;;;;;;23.29;20.58;95747.31;4939351;28;102823;-48